Time;durP1;ratioP1;P1;durP2;ratioP2;P2;SDS_P1;SDS_P2;PMS_P1;PMS_P2;Temp;Humidity;BMP_temperature;BMP_pressure;BME280_temperature;BME280_humidity;BME280_pressure;Samples;Min_cycle;Max_cycle;Signal;HPM_P1;HPM_P2
2022/03/16 00:00:39;;;;;;;15.50;12.37;;;9.90;99.90;;;;;;5007991;28;20237;-43
2022/03/16 00:03:11;;;;;;;14.13;12.00;;;9.90;99.90;;;;;;4991505;28;20212;-43
2022/03/16 00:05:41;;;;;;;17.43;12.33;;;9.90;99.90;;;;;;5004159;28;20260;-43
2022/03/16 00:08:08;;;;;;;16.10;12.83;;;9.90;99.90;;;;;;4992230;28;20604;-35
2022/03/16 00:10:38;;;;;;;15.87;13.00;;;9.80;99.90;;;;;;4998490;28;20190;-35
2022/03/16 00:13:05;;;;;;;18.73;13.77;;;9.80;99.90;;;;;;4991036;28;20333;-35
2022/03/16 00:15:35;;;;;;;17.27;14.07;;;9.80;99.90;;;;;;4991265;28;20206;-35
2022/03/16 00:18:04;;;;;;;17.27;13.30;;;9.80;99.90;;;;;;4997299;28;20264;-35
2022/03/16 00:20:32;;;;;;;16.50;13.60;;;9.80;99.90;;;;;;5005792;28;20229;-35
2022/03/16 00:23:02;;;;;;;16.90;14.03;;;9.70;99.90;;;;;;4997703;28;20317;-36
2022/03/16 00:25:33;;;;;;;17.63;13.70;;;9.70;99.90;;;;;;4998754;28;20206;-36
2022/03/16 00:28:03;;;;;;;16.07;13.80;;;9.70;99.90;;;;;;4992293;28;20218;-35
2022/03/16 00:30:33;;;;;;;17.20;13.63;;;9.70;99.90;;;;;;4992900;28;20265;-43
2022/03/16 00:33:03;;;;;;;17.13;13.07;;;9.70;99.90;;;;;;5001203;28;20296;-43
2022/03/16 00:35:35;;;;;;;14.50;12.90;;;9.60;99.90;;;;;;5000794;28;20602;-43
2022/03/16 00:38:03;;;;;;;15.93;13.50;;;9.70;99.90;;;;;;4990575;28;20579;-43
2022/03/16 00:40:38;;;;;;;14.70;13.10;;;9.60;99.90;;;;;;4989419;28;20329;-43
2022/03/16 00:43:08;;;;;;;15.07;12.97;;;9.60;99.90;;;;;;4990031;28;20214;-43
2022/03/16 00:45:47;;;;;;;17.23;12.87;;;9.60;99.90;;;;;;4991140;28;20246;-43
2022/03/16 00:48:17;;;;;;;16.03;12.57;;;9.60;99.90;;;;;;4989481;28;20206;-43
2022/03/16 00:50:49;;;;;;;17.20;13.07;;;9.60;99.90;;;;;;4994533;28;20257;-43
2022/03/16 00:53:16;;;;;;;16.50;12.60;;;9.60;99.90;;;;;;5003587;28;20229;-43
2022/03/16 00:55:46;;;;;;;16.07;12.43;;;9.60;99.90;;;;;;4999345;28;20292;-43
2022/03/16 00:58:13;;;;;;;16.90;12.63;;;9.50;99.90;;;;;;4997332;28;20293;-44
2022/03/16 01:00:42;;;;;;;15.07;12.53;;;9.50;99.90;;;;;;4973357;28;20215;-43
2022/03/16 01:03:10;;;;;;;16.07;12.93;;;9.50;99.90;;;;;;4995166;28;20281;-43
2022/03/16 01:05:37;;;;;;;16.67;12.87;;;9.50;99.90;;;;;;4989696;28;20618;-43
2022/03/16 01:08:09;;;;;;;16.67;13.07;;;9.50;99.90;;;;;;5007992;28;20272;-44
2022/03/16 01:10:38;;;;;;;14.90;12.93;;;9.50;99.90;;;;;;4998941;28;20209;-43
2022/03/16 01:13:06;;;;;;;17.37;13.13;;;9.50;99.90;;;;;;5006758;28;20201;-43
2022/03/16 01:15:35;;;;;;;14.90;12.73;;;9.40;99.90;;;;;;5008606;28;20213;-43
2022/03/16 01:18:03;;;;;;;14.40;12.77;;;9.40;99.90;;;;;;4988644;28;20237;-43
2022/03/16 01:20:33;;;;;;;15.47;12.80;;;9.40;99.90;;;;;;4984126;28;20610;-43
2022/03/16 01:23:03;;;;;;;15.70;12.83;;;9.40;99.90;;;;;;4996389;28;20223;-43
2022/03/16 01:25:30;;;;;;;15.97;13.20;;;9.30;99.90;;;;;;4989855;28;20217;-43
2022/03/16 01:28:00;;;;;;;15.90;12.37;;;9.30;99.90;;;;;;5005908;28;20217;-43
2022/03/16 01:30:29;;;;;;;16.10;12.00;;;9.30;99.90;;;;;;5005681;28;20249;-43
2022/03/16 01:32:57;;;;;;;13.50;11.60;;;9.30;99.90;;;;;;4983042;28;20220;-43
2022/03/16 01:35:24;;;;;;;15.73;12.10;;;9.30;99.90;;;;;;5008412;28;20206;-43
2022/03/16 01:37:51;;;;;;;13.40;11.63;;;9.30;99.90;;;;;;5006014;28;20713;-43
2022/03/16 01:40:19;;;;;;;14.47;12.03;;;9.20;99.90;;;;;;4993713;28;20290;-43
2022/03/16 01:42:46;;;;;;;14.43;11.93;;;9.20;99.90;;;;;;4992262;28;20210;-43
2022/03/16 01:45:23;;;;;;;13.23;11.83;;;9.20;99.90;;;;;;4989197;28;20217;-43
2022/03/16 01:47:52;;;;;;;14.00;11.57;;;9.20;99.90;;;;;;4992801;28;20281;-43
2022/03/16 01:50:24;;;;;;;12.23;10.93;;;9.10;99.90;;;;;;5007514;28;20229;-43
2022/03/16 01:52:51;;;;;;;14.13;11.47;;;9.10;99.90;;;;;;4989950;28;20288;-43
2022/03/16 01:55:23;;;;;;;13.27;10.73;;;9.10;99.90;;;;;;4997584;28;20218;-43
2022/03/16 01:57:53;;;;;;;14.90;10.80;;;9.10;99.90;;;;;;5007036;28;20952;-43
2022/03/16 02:00:26;;;;;;;16.97;11.70;;;9.10;99.90;;;;;;4998474;28;20551;-43
2022/03/16 02:02:53;;;;;;;14.20;11.20;;;9.10;99.90;;;;;;4982626;28;20640;-43
2022/03/16 02:05:25;;;;;;;15.13;11.30;;;9.10;99.90;;;;;;4994300;28;20306;-44
2022/03/16 02:07:57;;;;;;;13.90;11.10;;;9.10;99.90;;;;;;5002195;28;20197;-43
2022/03/16 02:10:27;;;;;;;12.60;11.13;;;9.10;99.90;;;;;;5005913;28;20653;-43
2022/03/16 02:12:55;;;;;;;15.57;11.73;;;9.10;99.90;;;;;;4994437;28;20197;-43
2022/03/16 02:15:29;;;;;;;13.13;11.47;;;9.10;99.90;;;;;;5001191;28;20617;-43
2022/03/16 02:17:59;;;;;;;15.13;11.70;;;9.10;99.90;;;;;;4994055;28;20203;-43
2022/03/16 02:20:27;;;;;;;14.60;11.37;;;9.00;99.90;;;;;;4996842;28;20478;-43
2022/03/16 02:22:56;;;;;;;16.43;11.77;;;9.00;99.90;;;;;;5004799;28;20704;-44
2022/03/16 02:25:29;;;;;;;12.73;11.30;;;9.00;99.90;;;;;;5001923;28;20201;-43
2022/03/16 02:27:57;;;;;;;15.33;11.83;;;9.00;99.90;;;;;;5006480;28;20710;-43
2022/03/16 02:30:29;;;;;;;12.70;11.27;;;9.00;99.90;;;;;;4996522;28;20303;-43
2022/03/16 02:32:56;;;;;;;14.23;11.23;;;9.00;99.90;;;;;;4993364;28;20230;-43
2022/03/16 02:35:31;;;;;;;14.63;11.83;;;9.00;99.90;;;;;;4993199;28;20268;-43
2022/03/16 02:38:04;;;;;;;13.30;11.53;;;8.90;99.90;;;;;;5002193;28;20366;-43
2022/03/16 02:40:32;;;;;;;13.97;11.53;;;8.90;99.90;;;;;;4992763;28;20268;-43
2022/03/16 02:43:02;;;;;;;14.10;11.67;;;8.90;99.90;;;;;;4991991;28;20306;-43
2022/03/16 02:45:29;;;;;;;12.37;11.10;;;8.90;99.90;;;;;;5005313;28;20296;-43
2022/03/16 02:47:59;;;;;;;13.10;10.70;;;8.90;99.90;;;;;;4984965;28;20593;-43
2022/03/16 02:50:26;;;;;;;13.17;11.53;;;8.90;99.90;;;;;;5001096;28;20249;-44
2022/03/16 02:52:53;;;;;;;14.10;11.67;;;8.90;99.90;;;;;;4999517;28;20222;-44
2022/03/16 02:55:41;;;;;;;13.00;11.17;;;8.90;99.90;;;;;;5002207;28;20687;-43
2022/03/16 02:58:09;;;;;;;12.50;10.90;;;8.80;99.90;;;;;;5002848;28;20233;-43
2022/03/16 03:00:39;;;;;;;13.70;11.37;;;8.80;99.90;;;;;;5008873;28;20256;-43
2022/03/16 03:03:09;;;;;;;13.70;11.80;;;8.80;99.90;;;;;;5004161;28;20202;-43
2022/03/16 03:05:44;;;;;;;13.77;12.07;;;8.80;99.90;;;;;;5010274;28;20221;-43
2022/03/16 03:08:11;;;;;;;16.23;12.50;;;8.80;99.90;;;;;;5007271;28;20296;-43
2022/03/16 03:10:38;;;;;;;12.87;11.17;;;8.80;99.90;;;;;;4996861;28;20225;-44
2022/03/16 03:13:08;;;;;;;14.03;11.33;;;8.80;99.90;;;;;;4957992;28;20203;-44
2022/03/16 03:15:43;;;;;;;14.53;11.93;;;8.80;99.90;;;;;;4997348;28;20202;-43
2022/03/16 03:18:10;;;;;;;13.33;11.93;;;8.80;99.90;;;;;;5001655;28;20198;-43
2022/03/16 03:20:40;;;;;;;12.90;11.47;;;8.80;99.90;;;;;;5003533;28;20206;-43
2022/03/16 03:23:12;;;;;;;13.83;11.90;;;8.80;99.90;;;;;;5001916;28;20225;-43
2022/03/16 03:25:42;;;;;;;14.60;11.80;;;8.80;99.90;;;;;;4991607;28;20300;-43
2022/03/16 03:28:09;;;;;;;12.23;11.03;;;8.80;99.90;;;;;;5004903;28;20294;-43
2022/03/16 03:30:39;;;;;;;13.10;11.53;;;8.80;99.90;;;;;;4985013;28;20218;-43
2022/03/16 03:33:08;;;;;;;14.37;11.73;;;8.80;99.90;;;;;;5005014;28;20201;-43
2022/03/16 03:35:38;;;;;;;14.40;11.70;;;8.80;99.90;;;;;;4994582;28;20265;-43
2022/03/16 03:38:08;;;;;;;15.00;12.23;;;8.80;99.90;;;;;;4993022;28;20212;-43
2022/03/16 03:40:35;;;;;;;12.83;11.37;;;8.80;99.90;;;;;;4988078;28;20205;-43
2022/03/16 03:43:02;;;;;;;13.43;11.03;;;8.90;99.90;;;;;;5010376;28;20209;-43
2022/03/16 03:45:32;;;;;;;13.63;11.47;;;8.90;99.90;;;;;;4992322;28;20268;-43
2022/03/16 03:47:59;;;;;;;14.80;12.40;;;8.90;99.90;;;;;;4998318;28;20205;-43
2022/03/16 03:50:29;;;;;;;14.73;11.87;;;8.90;99.90;;;;;;4999924;28;20226;-36
2022/03/16 03:52:56;;;;;;;13.63;11.97;;;9.00;99.90;;;;;;4994095;28;20288;-35
2022/03/16 03:55:28;;;;;;;15.73;12.23;;;8.90;99.90;;;;;;4991914;28;20216;-35
2022/03/16 03:57:58;;;;;;;14.37;11.93;;;9.00;99.90;;;;;;4996005;28;20234;-35
2022/03/16 04:00:30;;;;;;;14.13;12.63;;;9.00;99.90;;;;;;4995927;28;20214;-35
2022/03/16 04:02:59;;;;;;;13.20;11.63;;;9.00;99.90;;;;;;4991172;28;20206;-35
2022/03/16 04:05:27;;;;;;;15.37;12.50;;;9.00;99.90;;;;;;4990436;28;20580;-35
2022/03/16 04:07:59;;;;;;;13.63;12.07;;;9.10;99.90;;;;;;4973521;28;20689;-35
2022/03/16 04:10:26;;;;;;;15.77;12.37;;;9.10;99.90;;;;;;4991250;28;20222;-35
2022/03/16 04:12:53;;;;;;;14.43;12.40;;;9.10;99.90;;;;;;5006822;28;20248;-35
2022/03/16 04:15:23;;;;;;;13.80;12.30;;;9.10;99.90;;;;;;4992224;28;20217;-35
2022/03/16 04:17:50;;;;;;;14.83;13.20;;;9.10;99.90;;;;;;4998794;28;20301;-36
2022/03/16 04:20:21;;;;;;;13.20;11.60;;;9.10;99.90;;;;;;4990694;28;20646;-35
2022/03/16 04:22:50;;;;;;;14.60;12.53;;;9.10;99.90;;;;;;5004936;28;20221;-36
2022/03/16 04:25:18;;;;;;;15.47;12.77;;;9.20;99.90;;;;;;5008122;28;20618;-35
2022/03/16 04:27:47;;;;;;;14.63;12.73;;;9.10;99.90;;;;;;4992374;28;20304;-35
2022/03/16 04:30:16;;;;;;;15.00;12.30;;;9.20;99.90;;;;;;4999301;28;20751;-36
2022/03/16 04:32:53;;;;;;;13.37;11.97;;;9.20;99.90;;;;;;5002203;28;20209;-36
2022/03/16 04:35:23;;;;;;;14.67;12.57;;;9.20;99.90;;;;;;4989628;28;20308;-35
2022/03/16 04:37:53;;;;;;;14.13;12.03;;;9.20;99.90;;;;;;5006896;28;20553;-36
2022/03/16 04:40:20;;;;;;;14.60;12.40;;;9.20;99.90;;;;;;5005644;28;20313;-35
2022/03/16 04:42:50;;;;;;;14.27;12.73;;;9.20;99.90;;;;;;5004541;28;20775;-35
2022/03/16 04:45:17;;;;;;;14.70;12.70;;;9.30;99.90;;;;;;5005094;28;20260;-35
2022/03/16 04:47:46;;;;;;;13.40;12.00;;;9.30;99.90;;;;;;4998444;28;20705;-35
2022/03/16 04:50:14;;;;;;;13.53;12.00;;;9.30;99.90;;;;;;5004486;28;20635;-35
2022/03/16 04:52:50;;;;;;;14.20;12.43;;;9.30;99.90;;;;;;4990358;28;20657;-35
2022/03/16 04:55:17;;;;;;;14.40;12.77;;;9.30;99.90;;;;;;4999342;28;20210;-35
2022/03/16 04:57:49;;;;;;;14.23;12.73;;;9.30;99.90;;;;;;4997662;28;20791;-35
2022/03/16 05:00:19;;;;;;;17.10;12.83;;;9.40;99.90;;;;;;5006924;28;20241;-35
2022/03/16 05:02:46;;;;;;;13.93;11.93;;;9.30;99.90;;;;;;4993869;28;20266;-35
2022/03/16 05:05:16;;;;;;;16.30;12.83;;;9.30;99.90;;;;;;4995310;28;20201;-35
2022/03/16 05:07:46;;;;;;;15.27;12.73;;;9.40;99.90;;;;;;5000377;28;20241;-35
2022/03/16 05:10:17;;;;;;;14.97;13.33;;;9.40;99.90;;;;;;4990040;28;20328;-35
2022/03/16 05:12:47;;;;;;;14.17;12.63;;;9.40;99.90;;;;;;5006364;28;20691;-35
2022/03/16 05:15:19;;;;;;;15.27;12.47;;;9.40;99.90;;;;;;5005309;28;20194;-36
2022/03/16 05:17:51;;;;;;;14.67;12.83;;;9.40;99.90;;;;;;4991444;28;20254;-35
2022/03/16 05:20:21;;;;;;;14.73;12.67;;;9.40;99.90;;;;;;4991294;28;20222;-35
2022/03/16 05:22:52;;;;;;;14.90;13.30;;;9.40;99.90;;;;;;5001867;28;21046;-35
2022/03/16 05:25:31;;;;;;;14.13;12.60;;;9.50;99.90;;;;;;5005270;28;20412;-35
2022/03/16 05:28:02;;;;;;;15.80;12.90;;;9.50;99.90;;;;;;5005823;28;20627;-35
2022/03/16 05:30:29;;;;;;;14.73;12.67;;;9.40;99.90;;;;;;4991252;28;20273;-35
2022/03/16 05:33:04;;;;;;;16.03;13.50;;;9.50;99.90;;;;;;4997500;28;20296;-35
2022/03/16 05:35:31;;;;;;;14.43;12.93;;;9.50;99.90;;;;;;4991018;28;20202;-35
2022/03/16 05:38:05;;;;;;;17.13;13.43;;;9.50;99.90;;;;;;4972704;28;20202;-35
2022/03/16 05:40:33;;;;;;;16.70;13.83;;;9.50;99.90;;;;;;5002312;28;20712;-35
2022/03/16 05:43:00;;;;;;;14.83;12.70;;;9.50;99.90;;;;;;4988459;28;20217;-35
2022/03/16 05:45:30;;;;;;;16.57;12.93;;;9.50;99.90;;;;;;5006335;28;20201;-36
2022/03/16 05:48:00;;;;;;;15.13;13.27;;;9.50;99.90;;;;;;5006026;28;20610;-35
2022/03/16 05:50:32;;;;;;;15.20;13.00;;;9.50;99.90;;;;;;4991168;28;20228;-35
2022/03/16 05:53:01;;;;;;;17.90;14.13;;;9.50;99.90;;;;;;4991556;28;22179;-35
2022/03/16 05:55:30;;;;;;;17.50;13.80;;;9.50;99.90;;;;;;4995296;28;20292;-35
2022/03/16 05:58:00;;;;;;;16.73;13.83;;;9.50;99.90;;;;;;4990958;28;20727;-35
2022/03/16 06:00:28;;;;;;;15.97;13.33;;;9.50;99.90;;;;;;4994763;28;20226;-35
2022/03/16 06:02:55;;;;;;;15.77;13.30;;;9.50;99.90;;;;;;4989009;28;20243;-35
2022/03/16 06:05:26;;;;;;;16.90;14.07;;;9.50;99.90;;;;;;4989168;28;20268;-35
2022/03/16 06:07:54;;;;;;;19.37;13.17;;;9.50;99.90;;;;;;5000343;28;20631;-35
2022/03/16 06:10:24;;;;;;;16.80;13.67;;;9.50;99.90;;;;;;4981990;28;20254;-35
2022/03/16 06:12:51;;;;;;;17.17;14.60;;;9.50;99.90;;;;;;4991921;28;20263;-35
2022/03/16 06:15:24;;;;;;;17.00;14.00;;;9.50;99.90;;;;;;4992010;28;20629;-35
2022/03/16 06:17:55;;;;;;;18.17;13.50;;;9.60;99.90;;;;;;4999514;28;20217;-35
2022/03/16 06:20:26;;;;;;;15.37;13.77;;;9.50;99.90;;;;;;4981556;28;20279;-35
2022/03/16 06:22:56;;;;;;;18.00;14.33;;;9.50;99.90;;;;;;4993947;28;20261;-35
2022/03/16 06:25:28;;;;;;;16.87;13.60;;;9.50;99.90;;;;;;5012752;28;20304;-37
2022/03/16 06:27:57;;;;;;;16.67;14.17;;;9.50;99.90;;;;;;5005439;28;20752;-43
2022/03/16 06:30:27;;;;;;;16.73;13.80;;;9.50;99.90;;;;;;5002700;28;20240;-43
2022/03/16 06:32:57;;;;;;;16.50;13.07;;;9.50;99.90;;;;;;4999640;28;20241;-43
2022/03/16 06:35:25;;;;;;;16.23;14.53;;;9.50;99.90;;;;;;4997842;28;20202;-43
2022/03/16 06:37:54;;;;;;;18.00;14.10;;;9.50;99.90;;;;;;4999756;28;20292;-43
2022/03/16 06:40:26;;;;;;;16.73;14.13;;;9.50;99.90;;;;;;4992325;28;20224;-43
2022/03/16 06:42:58;;;;;;;16.80;14.10;;;9.50;99.90;;;;;;5007113;28;20227;-44
2022/03/16 06:45:27;;;;;;;15.80;14.07;;;9.50;99.90;;;;;;5008088;28;20225;-44
2022/03/16 06:48:01;;;;;;;17.70;14.33;;;9.50;99.90;;;;;;5001235;28;21083;-43
2022/03/16 06:50:33;;;;;;;17.13;13.53;;;9.50;99.90;;;;;;4999253;28;20292;-44
2022/03/16 06:53:02;;;;;;;15.70;13.60;;;9.40;99.90;;;;;;5001484;28;20255;-44
2022/03/16 06:55:32;;;;;;;18.30;14.50;;;9.40;99.90;;;;;;4999269;28;20206;-44
2022/03/16 06:58:00;;;;;;;17.40;14.27;;;9.40;99.90;;;;;;4994275;28;20213;-43
2022/03/16 07:00:29;;;;;;;18.67;15.00;;;9.40;99.90;;;;;;5009366;28;20563;-44
2022/03/16 07:03:01;;;;;;;17.03;13.57;;;9.40;99.90;;;;;;4992488;28;20222;-43
2022/03/16 07:05:36;;;;;;;19.77;14.60;;;9.40;99.90;;;;;;5000120;28;20814;-44
2022/03/16 07:08:07;;;;;;;16.73;14.03;;;9.40;99.90;;;;;;5004278;28;20249;-44
2022/03/16 07:10:36;;;;;;;17.33;13.73;;;9.40;99.90;;;;;;4995602;28;20237;-44
2022/03/16 07:13:14;;;;;;;18.37;13.53;;;9.40;99.90;;;;;;5000471;28;20376;-43
2022/03/16 07:15:43;;;;;;;18.43;14.43;;;9.40;99.90;;;;;;5010816;28;20286;-44
2022/03/16 07:18:13;;;;;;;17.13;13.73;;;9.40;99.90;;;;;;5007198;28;20708;-43
2022/03/16 07:20:43;;;;;;;17.30;13.60;;;9.50;99.90;;;;;;5008602;28;20268;-43
2022/03/16 07:23:15;;;;;;;19.33;14.27;;;9.50;99.90;;;;;;4984486;28;20244;-44
2022/03/16 07:25:46;;;;;;;18.90;14.60;;;9.50;99.90;;;;;;5001499;28;20589;-43
2022/03/16 07:28:14;;;;;;;17.23;13.30;;;9.50;99.90;;;;;;4974828;28;20205;-43
2022/03/16 07:30:44;;;;;;;16.80;13.20;;;9.50;99.90;;;;;;5006454;28;20223;-44
2022/03/16 07:33:15;;;;;;;21.57;14.03;;;9.60;99.90;;;;;;4994503;28;20580;-43
2022/03/16 07:35:43;;;;;;;17.87;13.70;;;9.60;99.90;;;;;;4995160;28;20210;-36
2022/03/16 07:38:11;;;;;;;17.90;14.93;;;9.60;99.90;;;;;;4986074;28;20206;-36
2022/03/16 07:40:41;;;;;;;19.13;14.20;;;9.60;99.90;;;;;;4996374;28;20205;-35
2022/03/16 07:43:11;;;;;;;16.17;13.33;;;9.70;99.90;;;;;;4992788;28;20300;-36
2022/03/16 07:45:41;;;;;;;16.73;13.23;;;9.80;99.90;;;;;;4992942;28;20313;-36
2022/03/16 07:48:11;;;;;;;18.27;14.17;;;9.80;99.90;;;;;;5005048;28;20436;-36
2022/03/16 07:50:38;;;;;;;17.77;14.03;;;9.80;99.90;;;;;;5002194;28;20291;-36
2022/03/16 07:53:10;;;;;;;16.43;12.90;;;9.90;99.90;;;;;;4998620;28;20273;-36
2022/03/16 07:55:40;;;;;;;18.27;13.93;;;9.90;99.90;;;;;;5000160;28;20213;-36
2022/03/16 07:58:07;;;;;;;14.47;12.47;;;9.90;99.90;;;;;;5007886;28;20198;-36
2022/03/16 08:00:37;;;;;;;16.63;13.40;;;10.00;99.90;;;;;;5004070;28;20234;-36
2022/03/16 08:03:07;;;;;;;17.47;13.97;;;10.00;99.90;;;;;;4978249;28;20737;-36
2022/03/16 08:05:34;;;;;;;15.67;12.93;;;10.10;99.90;;;;;;4991477;28;20217;-36
2022/03/16 08:08:04;;;;;;;15.90;13.40;;;10.10;99.90;;;;;;4996481;28;20768;-36
2022/03/16 08:10:36;;;;;;;16.43;13.20;;;10.20;99.90;;;;;;4989900;28;20230;-36
2022/03/16 08:13:05;;;;;;;18.93;13.57;;;10.20;99.90;;;;;;4991338;28;20198;-36
2022/03/16 08:15:33;;;;;;;16.33;13.37;;;10.30;99.90;;;;;;4991720;28;20353;-36
2022/03/16 08:18:00;;;;;;;17.13;14.17;;;10.30;99.90;;;;;;4990884;28;20238;-36
2022/03/16 08:20:27;;;;;;;17.27;13.23;;;10.30;99.90;;;;;;5007888;28;20217;-35
2022/03/16 08:22:57;;;;;;;17.97;14.70;;;10.40;99.90;;;;;;4990229;28;20325;-36
2022/03/16 08:25:49;;;;;;;17.90;13.63;;;10.40;99.90;;;;;;4987265;28;20652;-36
2022/03/16 08:28:16;;;;;;;16.80;13.80;;;10.50;99.90;;;;;;4991142;28;20677;-36
2022/03/16 08:30:46;;;;;;;15.73;13.50;;;10.50;99.90;;;;;;4991249;28;20824;-36
2022/03/16 08:33:18;;;;;;;16.00;13.70;;;10.60;99.90;;;;;;4988998;28;20226;-36
2022/03/16 08:35:48;;;;;;;16.37;13.47;;;10.60;99.90;;;;;;4986784;28;20213;-36
2022/03/16 08:38:15;;;;;;;16.30;13.23;;;10.70;99.90;;;;;;4997007;28;20190;-36
2022/03/16 08:40:43;;;;;;;15.70;13.40;;;10.70;99.90;;;;;;4997228;28;20209;-36
2022/03/16 08:43:10;;;;;;;15.83;12.57;;;10.80;99.90;;;;;;5003099;28;20268;-36
2022/03/16 08:45:42;;;;;;;14.90;12.97;;;10.80;99.90;;;;;;4998587;28;20203;-36
2022/03/16 08:48:10;;;;;;;17.27;13.13;;;10.90;99.90;;;;;;4999866;28;20703;-36
2022/03/16 08:50:37;;;;;;;16.00;12.83;;;10.90;99.90;;;;;;4996212;28;20214;-36
2022/03/16 08:53:06;;;;;;;16.37;13.47;;;11.00;99.90;;;;;;4988726;28;20238;-36
2022/03/16 08:55:37;;;;;;;18.10;13.73;;;11.10;99.90;;;;;;4987298;28;20672;-36
2022/03/16 08:58:04;;;;;;;17.00;13.97;;;11.10;99.90;;;;;;4990811;28;20259;-35
2022/03/16 09:00:32;;;;;;;17.13;13.33;;;11.20;99.90;;;;;;4994175;28;20261;-36
2022/03/16 09:03:00;;;;;;;16.97;13.87;;;11.30;99.90;;;;;;4997442;28;20288;-35
2022/03/16 09:05:27;;;;;;;15.83;13.23;;;11.30;99.90;;;;;;4999634;28;20234;-36
2022/03/16 09:07:55;;;;;;;18.23;13.37;;;11.40;99.90;;;;;;4994172;28;20865;-36
2022/03/16 09:10:22;;;;;;;16.67;13.33;;;11.50;99.90;;;;;;4992758;28;20222;-36
2022/03/16 09:12:51;;;;;;;16.30;13.40;;;11.50;99.90;;;;;;4998473;28;20292;-36
2022/03/16 09:15:21;;;;;;;16.77;13.10;;;11.60;99.90;;;;;;5007957;28;20206;-36
2022/03/16 09:17:52;;;;;;;19.40;13.93;;;11.70;99.90;;;;;;4995405;28;20289;-36
2022/03/16 09:20:20;;;;;;;16.40;13.07;;;11.70;99.90;;;;;;4989722;28;20632;-36
2022/03/16 09:22:52;;;;;;;17.00;13.23;;;11.80;99.90;;;;;;5000475;28;20201;-36
2022/03/16 09:25:25;;;;;;;16.93;13.13;;;11.80;99.90;;;;;;5006917;28;20232;-36
2022/03/16 09:27:52;;;;;;;14.53;12.50;;;11.90;99.90;;;;;;4995007;28;20610;-36
2022/03/16 09:30:23;;;;;;;15.13;12.97;;;12.00;99.90;;;;;;4992854;28;20643;-36
2022/03/16 09:32:57;;;;;;;15.47;12.37;;;12.00;99.90;;;;;;4987875;28;20202;-36
2022/03/16 09:35:27;;;;;;;16.80;13.43;;;12.10;99.90;;;;;;4988865;28;20289;-36
2022/03/16 09:37:55;;;;;;;14.57;11.77;;;12.20;99.90;;;;;;4990170;28;20681;-36
2022/03/16 09:40:27;;;;;;;17.53;14.10;;;12.20;99.90;;;;;;4988164;28;20215;-35
2022/03/16 09:42:55;;;;;;;14.37;12.80;;;12.30;99.90;;;;;;4988601;28;20649;-36
2022/03/16 09:45:32;;;;;;;15.13;13.23;;;12.40;99.90;;;;;;4988656;28;20727;-36
2022/03/16 09:48:02;;;;;;;17.70;13.57;;;12.40;99.90;;;;;;4995802;28;20197;-36
2022/03/16 09:50:30;;;;;;;19.33;14.70;;;12.50;99.90;;;;;;5000958;28;20201;-36
2022/03/16 09:53:00;;;;;;;16.10;13.07;;;12.60;99.90;;;;;;4993365;28;20233;-36
2022/03/16 09:55:28;;;;;;;15.57;13.50;;;12.60;99.90;;;;;;4994634;28;20225;-36
2022/03/16 09:57:57;;;;;;;16.27;13.50;;;12.70;99.90;;;;;;4999940;28;20225;-36
2022/03/16 10:00:24;;;;;;;15.07;13.03;;;12.70;99.90;;;;;;5001014;28;20694;-36
2022/03/16 10:02:53;;;;;;;17.03;13.47;;;12.80;99.90;;;;;;4987942;28;20210;-36
2022/03/16 10:05:22;;;;;;;16.27;13.70;;;12.90;99.90;;;;;;5006383;28;20205;-37
2022/03/16 10:07:59;;;;;;;17.87;13.13;;;12.90;99.90;;;;;;4995962;28;20216;-36
2022/03/16 10:13:22;;;;;;;18.10;14.70;;;13.00;99.90;;;;;;4991592;28;20217;-37
2022/03/16 10:15:50;;;;;;;17.43;12.97;;;13.10;99.90;;;;;;4994836;28;20244;-36
2022/03/16 10:18:23;;;;;;;15.63;13.60;;;13.10;99.90;;;;;;4990148;28;20757;-37
2022/03/16 10:20:57;;;;;;;15.03;12.90;;;13.20;99.90;;;;;;4973033;28;20676;-37
2022/03/16 10:23:30;;;;;;;16.83;12.87;;;13.30;99.90;;;;;;4995488;28;20396;-37
2022/03/16 10:26:03;;;;;;;16.23;13.63;;;13.40;99.90;;;;;;4991556;28;20206;-37
2022/03/16 10:28:33;;;;;;;15.47;12.63;;;13.40;99.90;;;;;;4970521;28;20240;-36
2022/03/16 10:31:08;;;;;;;15.23;11.93;;;13.50;99.90;;;;;;4985175;28;20256;-37
2022/03/16 10:33:37;;;;;;;16.30;13.07;;;13.60;99.90;;;;;;5001030;28;20209;-36
2022/03/16 10:36:06;;;;;;;16.37;13.10;;;13.70;99.90;;;;;;4994733;28;20205;-37
2022/03/16 10:38:45;;;;;;;18.00;12.87;;;13.80;99.90;;;;;;4989589;28;20202;-36
2022/03/16 10:46:34;;;;;;;17.73;13.13;;;13.90;99.90;;;;;;4993685;28;20216;-37
2022/03/16 10:47:26;;;;;;;17.40;12.40;;;14.10;99.90;;;;;;4989489;28;20202;-43
2022/03/16 10:50:09;;;;;;;15.30;12.43;;;14.20;99.90;;;;;;4992904;28;20213;-44
2022/03/16 10:52:41;;;;;;;14.60;11.90;;;14.30;99.90;;;;;;4997770;28;20718;-43
2022/03/16 10:55:09;;;;;;;16.07;12.77;;;14.30;99.90;;;;;;5004643;28;20279;-43
2022/03/16 10:57:38;;;;;;;14.87;12.30;;;14.40;99.90;;;;;;4999451;28;20205;-37
2022/03/16 11:00:06;;;;;;;14.47;11.70;;;14.40;99.90;;;;;;4998492;28;20212;-37
2022/03/16 11:02:36;;;;;;;17.37;12.47;;;14.50;99.90;;;;;;5002297;28;20202;-36
2022/03/16 11:05:07;;;;;;;14.07;11.80;;;14.60;99.90;;;;;;4990674;28;20202;-36
2022/03/16 11:07:36;;;;;;;13.80;11.63;;;14.60;99.90;;;;;;5002910;28;20555;-36
2022/03/16 11:10:04;;;;;;;14.63;11.93;;;14.80;99.90;;;;;;4997877;28;20199;-35
2022/03/16 11:15:20;;;;;;;14.02;11.60;;;14.90;99.90;;;;;;4995957;28;20318;-35
2022/03/16 11:17:51;;;;;;;14.00;11.97;;;15.00;99.90;;;;;;5000967;28;20208;-35
2022/03/16 11:20:24;;;;;;;12.75;11.45;;;15.00;99.90;;;;;;4995982;28;20336;-35
2022/03/16 11:26:03;;;;;;;16.05;12.45;;;15.20;99.90;;;;;;4998145;28;20538;-36
2022/03/16 11:29:06;;;;;;;13.77;11.60;;;15.20;99.90;;;;;;4990392;28;20213;-36
2022/03/16 11:31:38;;;;;;;13.77;11.83;;;15.30;99.90;;;;;;4996376;28;20309;-36
2022/03/16 11:34:10;;;;;;;15.40;11.93;;;15.30;99.90;;;;;;5007018;28;20247;-36
2022/03/16 11:36:43;;;;;;;13.43;11.45;;;15.30;99.90;;;;;;5004911;28;20210;-37
2022/03/16 11:39:21;;;;;;;14.75;12.10;;;15.30;99.90;;;;;;5003098;28;20256;-36
2022/03/16 11:41:56;;;;;;;14.23;11.20;;;15.40;99.90;;;;;;4995147;28;20214;-36
2022/03/16 11:44:25;;;;;;;14.77;11.47;;;15.50;99.90;;;;;;4995910;28;20210;-36
2022/03/16 11:46:54;;;;;;;15.47;11.77;;;15.50;99.90;;;;;;4993471;28;20677;-42
2022/03/16 11:49:29;;;;;;;13.63;11.27;;;15.50;99.90;;;;;;4998917;28;20210;-42
2022/03/16 11:52:02;;;;;;;14.90;11.77;;;15.60;99.90;;;;;;4995890;28;20229;-42
2022/03/16 11:54:49;;;;;;;13.57;11.33;;;15.60;99.90;;;;;;4992688;28;20857;-42
2022/03/16 11:57:48;;;;;;;15.27;10.97;;;15.70;99.90;;;;;;4989562;28;20210;-41
2022/03/16 12:00:21;;;;;;;14.17;11.30;;;15.70;99.90;;;;;;4999972;28;20248;-41
2022/03/16 12:02:58;;;;;;;13.90;10.90;;;15.70;99.90;;;;;;5005552;28;20202;-42
2022/03/16 12:05:45;;;;;;;13.90;11.70;;;15.80;99.90;;;;;;5003196;28;20281;-43
2022/03/16 12:08:16;;;;;;;16.47;11.70;;;15.80;99.90;;;;;;4975280;28;20212;-43
2022/03/16 12:10:46;;;;;;;14.87;11.70;;;15.90;99.90;;;;;;4991167;28;20198;-43
2022/03/16 12:13:18;;;;;;;15.32;11.05;;;15.90;99.90;;;;;;4989273;28;20222;-43
2022/03/16 12:15:50;;;;;;;14.38;10.63;;;16.00;99.90;;;;;;4995244;28;20636;-43
2022/03/16 12:18:19;;;;;;;13.15;10.15;;;16.00;99.90;;;;;;5003343;28;20249;-43
2022/03/16 12:20:53;;;;;;;12.35;10.52;;;16.00;99.90;;;;;;5003229;28;20198;-43
2022/03/16 12:23:42;;;;;;;12.45;10.15;;;16.10;99.90;;;;;;4984680;28;20216;-43
2022/03/16 12:26:09;;;;;;;16.48;12.15;;;16.10;99.90;;;;;;4997615;28;20341;-43
2022/03/16 12:28:59;;;;;;;17.30;12.38;;;16.10;99.90;;;;;;4977908;28;20222;-42
2022/03/16 12:31:26;;;;;;;17.40;12.25;;;16.20;99.90;;;;;;4988189;28;20268;-42
2022/03/16 12:33:57;;;;;;;19.48;12.57;;;16.20;99.90;;;;;;4989990;28;20234;-43
2022/03/16 12:36:32;;;;;;;18.98;12.18;;;16.20;99.90;;;;;;4989688;28;20214;-42
2022/03/16 12:39:01;;;;;;;16.52;12.10;;;16.20;99.90;;;;;;5003925;28;20243;-42
2022/03/16 12:44:21;;;;;;;18.33;12.80;;;16.20;99.90;;;;;;4991296;28;20221;-42
2022/03/16 12:47:13;;;;;;;18.05;11.27;;;16.30;99.90;;;;;;5000725;28;20302;-43
2022/03/16 12:49:42;;;;;;;15.05;11.40;;;16.30;99.90;;;;;;4989176;28;20210;-42
2022/03/16 12:52:11;;;;;;;17.58;11.60;;;16.30;99.90;;;;;;4990455;28;20284;-42
2022/03/16 12:54:41;;;;;;;19.60;12.73;;;16.30;99.90;;;;;;4971968;28;20604;-42
2022/03/16 12:57:13;;;;;;;15.10;11.40;;;16.30;99.90;;;;;;4993743;28;20571;-42
2022/03/16 12:59:52;;;;;;;16.25;11.60;;;16.40;99.90;;;;;;4988198;28;20200;-42
2022/03/16 13:02:22;;;;;;;15.13;10.82;;;16.40;99.90;;;;;;4995649;28;20734;-42
2022/03/16 13:04:56;;;;;;;15.48;11.35;;;16.40;99.90;;;;;;4980659;28;20289;-42